Terminal Aerodrome Forecast
Issued by NWS

Home | Current Version | Previous Version | Text Only | Print | Product List | Glossary On
Versions: 1 2 3 4 5 6 7 8 9 10 11 12 13 14 15 16 17 18 19 20
000
FTUS44 KHGX 272320
TAFUTS
TAF
KUTS 272320Z 2800/2824 18010KT P6SM SCT250
     FM280400 17009KT P6SM BKN015 BKN030
     FM280600 19008KT P6SM OVC014
     FM281500 20009KT P6SM BKN025
     FM281700 19009KT P6SM SCT035
     FM282300 19008KT P6SM VCTS SCT035CB=

USA.gov is the U.S. government's official web portal to all federal, state and local government web resources and services.